Darstellungsparameter: Aktuell verwendete Einstellungen:
Skalierung der Graphiken ... ?
xyx+y,   Skalierungsfaktor:      Skalierung: Modus: x, Faktor: 1
Darstellungszeitraum ... ?
Vom - - bis: - -   Zeitraum: 07.05.2010 - 13.05.2010
Min/Max/Avg-Anzeige ... ?
Zeige MMA aktuell
Zeige MMA Monat
Zeige MMA alles
Zeige --A aktuell
Zeige --A Monat
Zeige --A alles
Keine MMA-Anzeige
MMA:
Average (ber die Originaldaten)
MMA-Basis: 07.05.2010 - 13.05.2010
Quicknavigation für Darstellung... ?
Tage:      1T, 2T, 3T, 5T -1T -2T -3T -5T +1T +2T +3T +5T
Wochen: 1W, 2W, 3W -1W -2W -3W +1W +2W +3W
Monate: 1M, 3M, 6M -1M -3M -6M +1M +3M +6M
Jahre:    1J, 3J, 5J, 10J -1J -3J -5J -10J +1J +3J +5J +10J
Nutze für die Darstellung ... ?
Originaldaten oder ...
Mittelwerte Minima Maxima auf...
Stundenbasis Tagesbasis Wochenbasis
Monatsbasis Jahresbasis      Datenbasis: Mittelwerte auf Stundenbasis
Darstellen als:
Statistik (Auto) Statistik J:M      Darstellung:
Zur Graphik,    zurück zur Übersicht aller Sensoren.
 
Tabellarische Datenbersicht: ?
 
Sensor: Nr:Datum:Temp:Abs-Feuchte:Windchill:Wind:
Aussen-T/F 1 07-05-2010 00:00:00 5.4 C 6.63 g/m*3 5.4 C 0 km/h
2 07-05-2010 01:00:00 5.4 C 6.63 g/m*3 5.4 C 0 km/h
3 07-05-2010 02:00:00 5.4 C 6.63 g/m*3 5.4 C 0 km/h
4 07-05-2010 03:00:00 5.32 C 6.59 g/m*3 5.32 C 0 km/h
5 07-05-2010 04:00:00 5.18 C 6.53 g/m*3 5.18 C 0 km/h
6 07-05-2010 05:00:00 4.88 C 6.4 g/m*3 4.88 C 0 km/h
7 07-05-2010 06:00:00 4.6 C 6.29 g/m*3 4.6 C 0 km/h
8 07-05-2010 07:00:00 4.68 C 6.32 g/m*3 4.68 C 0 km/h
9 07-05-2010 08:00:00 4.82 C 6.35 g/m*3 4.82 C 0 km/h
10 07-05-2010 09:00:00 4.86 C 6.17 g/m*3 4.86 C 0 km/h
11 07-05-2010 10:00:00 5.52 C 6.17 g/m*3 5.52 C 0 km/h
12 07-05-2010 11:00:00 7.02 C 6.66 g/m*3 7.02 C 0 km/h
13 07-05-2010 12:00:00 7.14 C 6.35 g/m*3 7.14 C 0 km/h
14 07-05-2010 13:00:00 7.8 C 6.51 g/m*3 7.8 C 0 km/h
15 07-05-2010 14:00:00 8.42 C 6.81 g/m*3 8.42 C 0 km/h
16 07-05-2010 15:00:00 8.2 C 6.82 g/m*3 8.2 C 0 km/h
17 07-05-2010 16:00:00 9.16 C 6.93 g/m*3 9.16 C 0 km/h
18 07-05-2010 17:00:00 9.42 C 7.08 g/m*3 9.42 C 0 km/h
19 07-05-2010 18:00:00 9.14 C 7.03 g/m*3 9.14 C 0 km/h
20 07-05-2010 19:00:00 7.9 C 7.06 g/m*3 7.9 C 0 km/h
21 07-05-2010 20:00:00 7.16 C 7.06 g/m*3 7.16 C 0 km/h
22 07-05-2010 21:00:00 6.68 C 7.03 g/m*3 6.68 C 0 km/h
23 07-05-2010 22:00:00 5.8 C 6.68 g/m*3 5.8 C 0 km/h
24 07-05-2010 23:00:00 5.96 C 6.82 g/m*3 5.96 C 0 km/h
25 08-05-2010 00:00:00 5.9 C 6.78 g/m*3 5.9 C 0 km/h
Sensor: Nr:Datum:Temp:Abs-Feuchte:Windchill:Wind:
Aussen-T/F 26 08-05-2010 01:00:00 4.96 C 6.38 g/m*3 4.96 C 0 km/h
27 08-05-2010 02:00:00 4.5 C 6.23 g/m*3 4.5 C 0 km/h
28 08-05-2010 03:00:00 4.6 C 6.29 g/m*3 4.6 C 0 km/h
29 08-05-2010 04:00:00 4.34 C 6.18 g/m*3 4.34 C 0 km/h
30 08-05-2010 05:00:00 4.34 C 6.18 g/m*3 4.34 C 0 km/h
31 08-05-2010 06:00:00 4.66 C 6.31 g/m*3 4.66 C 0 km/h
32 08-05-2010 07:00:00 5.22 C 6.55 g/m*3 5.22 C 0 km/h
33 08-05-2010 08:00:00 6.08 C 6.63 g/m*3 6.08 C 0 km/h
34 08-05-2010 09:00:00 8.26 C 6.96 g/m*3 8.26 C 0 km/h
35 08-05-2010 10:00:00 9.66 C 6.82 g/m*3 9.66 C 0 km/h
36 08-05-2010 11:00:00 13.06 C 6.76 g/m*3 13.06 C 0 km/h
37 08-05-2010 12:00:00 15.24 C 5.07 g/m*3 15.24 C 0 km/h
38 08-05-2010 13:00:00 16.84 C 5.22 g/m*3 16.84 C 0 km/h
39 08-05-2010 14:00:00 15.62 C 4.23 g/m*3 15.62 C 0 km/h
40 08-05-2010 15:00:00 15.92 C 4.37 g/m*3 15.92 C 0 km/h
41 08-05-2010 16:00:00 16.9 C 4.4 g/m*3 16.9 C 0 km/h
42 08-05-2010 17:00:00 18 C 4.18 g/m*3 18 C 0 km/h
43 08-05-2010 18:00:00 19.56 C 4.11 g/m*3 19.56 C 0 km/h
44 08-05-2010 19:00:00 18.28 C 4.31 g/m*3 18.28 C 0 km/h
45 08-05-2010 20:00:00 15.78 C 5.97 g/m*3 15.78 C 0 km/h
46 08-05-2010 21:00:00 13.44 C 6.11 g/m*3 13.44 C 0 km/h
47 08-05-2010 22:00:00 11.96 C 6.08 g/m*3 11.96 C 0 km/h
48 08-05-2010 23:00:00 11.06 C 6.25 g/m*3 11.06 C 0 km/h
49 09-05-2010 00:00:00 9.8 C 6.42 g/m*3 9.8 C 0 km/h
50 09-05-2010 01:00:00 8.82 C 6.48 g/m*3 8.82 C 0 km/h
Sensor: Nr:Datum:Temp:Abs-Feuchte:Windchill:Wind:
Aussen-T/F 51 09-05-2010 02:00:00 8.62 C 6.63 g/m*3 8.62 C 0 km/h
52 09-05-2010 03:00:00 8.46 C 6.64 g/m*3 8.46 C 0 km/h
53 09-05-2010 04:00:00 8.5 C 6.66 g/m*3 8.5 C 0 km/h
54 09-05-2010 05:00:00 7.64 C 6.51 g/m*3 7.64 C 0 km/h
55 09-05-2010 06:00:00 7.98 C 6.75 g/m*3 7.98 C 0 km/h
56 09-05-2010 07:00:00 8.8 C 6.88 g/m*3 8.8 C 0 km/h
57 09-05-2010 08:00:00 9.84 C 6.98 g/m*3 9.84 C 0 km/h
58 09-05-2010 09:00:00 11.3 C 7.04 g/m*3 11.3 C 0 km/h
59 09-05-2010 10:00:00 12.3 C 7.25 g/m*3 12.3 C 0 km/h
60 09-05-2010 11:00:00 12.28 C 7.4 g/m*3 12.28 C 0 km/h
61 09-05-2010 12:00:00 13.42 C 7.26 g/m*3 13.42 C 0 km/h
62 09-05-2010 13:00:00 17.02 C 6.66 g/m*3 17.02 C 0 km/h
63 09-05-2010 14:00:00 17.16 C 6.14 g/m*3 17.16 C 0 km/h
64 09-05-2010 15:00:00 17.52 C 6.3 g/m*3 17.52 C 0 km/h
65 09-05-2010 16:00:00 18.5 C 6.14 g/m*3 18.5 C 0 km/h
66 09-05-2010 17:00:00 19.08 C 5.44 g/m*3 19.08 C 0 km/h
67 09-05-2010 18:00:00 18.7 C 5.8 g/m*3 18.7 C 0 km/h
68 09-05-2010 19:00:00 16.88 C 6.84 g/m*3 16.88 C 0 km/h
69 09-05-2010 20:00:00 14.82 C 6.87 g/m*3 14.82 C 0 km/h
70 09-05-2010 21:00:00 12.5 C 7.08 g/m*3 12.5 C 0 km/h
71 09-05-2010 22:00:00 11.12 C 7.06 g/m*3 11.12 C 0 km/h
72 09-05-2010 23:00:00 10.74 C 7.11 g/m*3 10.74 C 0 km/h
73 10-05-2010 00:00:00 10.22 C 7.15 g/m*3 10.22 C 0 km/h
74 10-05-2010 01:00:00 9.86 C 7.28 g/m*3 9.86 C 0 km/h
75 10-05-2010 02:00:00 9.48 C 7.24 g/m*3 9.48 C 0 km/h
Sensor: Nr:Datum:Temp:Abs-Feuchte:Windchill:Wind:
Aussen-T/F 76 10-05-2010 03:00:00 8.88 C 7.19 g/m*3 8.88 C 0 km/h
77 10-05-2010 04:00:00 8.62 C 7.26 g/m*3 8.62 C 0 km/h
78 10-05-2010 05:00:00 8.66 C 7.28 g/m*3 8.66 C 0 km/h
79 10-05-2010 06:00:00 8.82 C 7.3 g/m*3 8.82 C 0 km/h
80 10-05-2010 07:00:00 9.62 C 7.58 g/m*3 9.62 C 0 km/h
81 10-05-2010 08:00:00 10.64 C 7.59 g/m*3 10.64 C 0 km/h
82 10-05-2010 09:00:00 10.88 C 7.27 g/m*3 10.88 C 0 km/h
83 10-05-2010 10:00:00 11.34 C 7.1 g/m*3 11.34 C 0 km/h
84 10-05-2010 11:00:00 11.5 C 7.09 g/m*3 11.5 C 0 km/h
85 10-05-2010 12:00:00 12.6 C 6.95 g/m*3 12.6 C 0 km/h
86 10-05-2010 13:00:00 14.48 C 6.34 g/m*3 14.48 C 0 km/h
87 10-05-2010 14:00:00 15 C 5.98 g/m*3 15 C 0 km/h
88 10-05-2010 15:00:00 15.1 C 5.78 g/m*3 15.1 C 0 km/h
89 10-05-2010 16:00:00 15.84 C 5.56 g/m*3 15.84 C 0 km/h
90 10-05-2010 17:00:00 15.78 C 5.38 g/m*3 15.78 C 0 km/h
91 10-05-2010 18:00:00 16.84 C 4.9 g/m*3 16.84 C 0 km/h
92 10-05-2010 19:00:00 15.02 C 4.96 g/m*3 15.02 C 0 km/h
93 10-05-2010 20:00:00 14.02 C 5.05 g/m*3 14.02 C 0 km/h
94 10-05-2010 21:00:00 12.02 C 5.46 g/m*3 12.02 C 0 km/h
95 10-05-2010 22:00:00 11.42 C 5.63 g/m*3 11.42 C 0 km/h
96 10-05-2010 23:00:00 11.34 C 5.81 g/m*3 11.34 C 0 km/h
97 11-05-2010 00:00:00 10.88 C 5.76 g/m*3 10.88 C 0 km/h
98 11-05-2010 01:00:00 10.42 C 5.93 g/m*3 10.42 C 0 km/h
99 11-05-2010 02:00:00 10.1 C 6.03 g/m*3 10.1 C 0 km/h
100 11-05-2010 03:00:00 9.78 C 6.15 g/m*3 9.78 C 0 km/h
Sensor: Nr:Datum:Temp:Abs-Feuchte:Windchill:Wind:
Aussen-T/F 101 11-05-2010 04:00:00 9.46 C 6.16 g/m*3 9.46 C 0 km/h
102 11-05-2010 05:00:00 9.38 C 6.16 g/m*3 9.38 C 0 km/h
103 11-05-2010 06:00:00 9.24 C 6.16 g/m*3 9.24 C 0 km/h
104 11-05-2010 07:00:00 9.6 C 6.32 g/m*3 9.6 C 0 km/h
105 11-05-2010 08:00:00 10.9 C 6.27 g/m*3 10.9 C 0 km/h
106 11-05-2010 09:00:00 12.16 C 6.03 g/m*3 12.16 C 0 km/h
107 11-05-2010 10:00:00 12.58 C 6.05 g/m*3 12.58 C 0 km/h
108 11-05-2010 11:00:00 12.52 C 6.19 g/m*3 12.52 C 0 km/h
109 11-05-2010 12:00:00 14.2 C 6.15 g/m*3 14.2 C 0 km/h
110 11-05-2010 13:00:00 13.74 C 6.27 g/m*3 13.74 C 0 km/h
111 11-05-2010 14:00:00 14.04 C 6.41 g/m*3 14.04 C 0 km/h
112 11-05-2010 15:00:00 14.4 C 6.43 g/m*3 14.4 C 0 km/h
113 11-05-2010 16:00:00 15.24 C 6.58 g/m*3 15.24 C 0 km/h
114 11-05-2010 17:00:00 14.84 C 6.73 g/m*3 14.84 C 0 km/h
115 11-05-2010 18:00:00 12.88 C 7.61 g/m*3 12.88 C 0 km/h
116 11-05-2010 19:00:00 10.94 C 8.32 g/m*3 10.94 C 0 km/h
117 11-05-2010 20:00:00 10.12 C 8.45 g/m*3 10.12 C 0 km/h
118 11-05-2010 21:00:00 9.86 C 8.61 g/m*3 9.86 C 0 km/h
119 11-05-2010 22:00:00 9.68 C 8.62 g/m*3 9.68 C 0 km/h
120 11-05-2010 23:00:00 9.8 C 8.72 g/m*3 9.8 C 0 km/h
121 12-05-2010 00:00:00 9.32 C 8.46 g/m*3 9.32 C 0 km/h
122 12-05-2010 01:00:00 8.52 C 8.07 g/m*3 8.52 C 0 km/h
123 12-05-2010 02:00:00 7.72 C 7.7 g/m*3 7.72 C 0 km/h
124 12-05-2010 03:00:00 7.12 C 7.32 g/m*3 7.12 C 0 km/h
125 12-05-2010 04:00:00 6.88 C 7 g/m*3 6.88 C 0 km/h
Sensor: Nr:Datum:Temp:Abs-Feuchte:Windchill:Wind:
Aussen-T/F 126 12-05-2010 05:00:00 6.8 C 6.67 g/m*3 6.8 C 0 km/h
127 12-05-2010 06:00:00 6.78 C 6.57 g/m*3 6.78 C 0 km/h
128 12-05-2010 07:00:00 7.08 C 6.62 g/m*3 7.08 C 0 km/h
129 12-05-2010 08:00:00 7.64 C 6.54 g/m*3 7.64 C 0 km/h
130 12-05-2010 09:00:00 8.28 C 6.23 g/m*3 8.28 C 0 km/h
131 12-05-2010 10:00:00 8.6 C 5.98 g/m*3 8.6 C 0 km/h
132 12-05-2010 11:00:00 9.18 C 5.71 g/m*3 9.18 C 0 km/h
133 12-05-2010 12:00:00 10.06 C 5.43 g/m*3 10.06 C 0 km/h
134 12-05-2010 13:00:00 10.68 C 5.3 g/m*3 10.68 C 0 km/h
135 12-05-2010 14:00:00 10.52 C 5.13 g/m*3 10.52 C 0 km/h
136 12-05-2010 15:00:00 10.84 C 5.01 g/m*3 10.84 C 0 km/h
137 12-05-2010 16:00:00 10.52 C 5.24 g/m*3 10.52 C 0 km/h
138 12-05-2010 17:00:00 9.74 C 5.29 g/m*3 9.74 C 0 km/h
139 12-05-2010 18:00:00 9.22 C 5.45 g/m*3 9.22 C 0 km/h
140 12-05-2010 19:00:00 8.9 C 5.69 g/m*3 8.9 C 0 km/h
141 12-05-2010 20:00:00 8.56 C 5.85 g/m*3 8.56 C 0 km/h
142 12-05-2010 21:00:00 8.44 C 6 g/m*3 8.44 C 0 km/h
143 12-05-2010 22:00:00 7.76 C 6.41 g/m*3 7.76 C 0 km/h
144 12-05-2010 23:00:00 7.8 C 6.68 g/m*3 7.8 C 0 km/h
145 13-05-2010 00:00:00 7.58 C 6.47 g/m*3 7.58 C 0 km/h
146 13-05-2010 01:00:00 7.34 C 6.51 g/m*3 7.34 C 0 km/h
147 13-05-2010 02:00:00 7.42 C 6.58 g/m*3 7.42 C 0 km/h
148 13-05-2010 03:00:00 7.3 C 6.51 g/m*3 7.3 C 0 km/h
149 13-05-2010 04:00:00 7 C 6.59 g/m*3 7 C 0 km/h
150 13-05-2010 05:00:00 6.76 C 6.65 g/m*3 6.76 C 0 km/h
Sensor: Nr:Datum:Temp:Abs-Feuchte:Windchill:Wind:
Aussen-T/F 151 13-05-2010 06:00:00 6.64 C 6.66 g/m*3 6.64 C 0 km/h
152 13-05-2010 07:00:00 6.8 C 6.7 g/m*3 6.8 C 0 km/h
153 13-05-2010 08:00:00 6.94 C 6.27 g/m*3 6.94 C 0 km/h
154 13-05-2010 09:00:00 7.94 C 6 g/m*3 7.94 C 0 km/h
155 13-05-2010 10:00:00 9.46 C 5.43 g/m*3 9.46 C 0 km/h
156 13-05-2010 11:00:00 9.9 C 5.06 g/m*3 9.9 C 0 km/h
157 13-05-2010 12:00:00 10.06 C 4.85 g/m*3 10.06 C 0 km/h
158 13-05-2010 13:00:00 9.74 C 4.99 g/m*3 9.74 C 0 km/h
159 13-05-2010 14:00:00 10.6 C 5.02 g/m*3 10.6 C 0 km/h
160 13-05-2010 15:00:00 10.1 C 4.99 g/m*3 10.1 C 0 km/h
161 13-05-2010 16:00:00 8.66 C 6.02 g/m*3 8.66 C 0 km/h
162 13-05-2010 17:00:00 8.22 C 6.37 g/m*3 8.22 C 0 km/h
163 13-05-2010 18:00:00 8.56 C 6.91 g/m*3 8.56 C 0 km/h
164 13-05-2010 19:00:00 7.4 C 6.78 g/m*3 7.4 C 0 km/h
165 13-05-2010 20:00:00 7.44 C 6.98 g/m*3 7.44 C 0 km/h
166 13-05-2010 21:00:00 7.44 C 7.11 g/m*3 7.44 C 0 km/h
167 13-05-2010 22:00:00 7.3 C 7.11 g/m*3 7.3 C 0 km/h
168 13-05-2010 23:00:00 7.24 C 7.13 g/m*3 7.24 C 0 km/h

Maximal/Minimal-Werte vom 07.05.2010 - 13.05.2010

Sensor Min Max Avg
Temp
(Aussen-T/F)
4 °C
08-05-2010  04:36:02
19.9 °C
08-05-2010  18:12:02
10.05 °C
Abs-Feuchte
(Aussen-T/F)
4.11 g/m*3
08-05-2010  18:00:00
8.72 g/m*3
11-05-2010  23:00:00
6.36 g/m*3
Windchill
(Aussen-T/F)
4.34 C
08-05-2010  04:00:00
19.56 C
08-05-2010  18:00:00
9.98 C

Die Daten stammen von einer Davis Vantage Pro 2 Wetter-Station und werden unter Linux mit der Software wview2wettercgi und aufbereitet. Alle Angaben erfolgen ohne Gewähr für ihre Vollständigkeit oder Richtigkeit.
Kontakt: Rainer Krienke krienke@uni-koblenz.de . Meine Webseiten an der Uni Koblenz oder privat.
Version: $Revision: 0.78 $